Time;durP1;ratioP1;P1;durP2;ratioP2;P2;SDS_P1;SDS_P2;PMS_P1;PMS_P2;Temp;Humidity;BMP_temperature;BMP_pressure;BME280_temperature;BME280_humidity;BME280_pressure;Samples;Min_cycle;Max_cycle;Signal;HPM_P1;HPM_P2
2022/02/02 00:00:41;;;;;;;29.17;3.95;;;;;;;;;;5049564;28;20029;-81
2022/02/02 00:03:10;;;;;;;25.33;4.10;;;;;;;;;;5027868;28;20039;-81
2022/02/02 00:11:19;;;;;;;;;;;;;;;;;;5049001;28;20032;-86
2022/02/02 00:14:20;;;;;;;24.48;4.15;;;;;;;;;;5046226;28;19923;-82
2022/02/02 00:16:40;;;;;;;27.58;3.70;;;;;;;;;;5036710;28;20063;-84
2022/02/02 00:19:15;;;;;;;27.73;4.45;;;;;;;;;;5043150;28;20041;-81
2022/02/02 00:21:45;;;;;;;26.92;4.13;;;;;;;;;;5031191;28;20067;-84
2022/02/02 00:24:22;;;;;;;23.42;4.38;;;;;;;;;;5028705;28;20040;-86
2022/02/02 00:26:52;;;;;;;25.75;3.58;;;;;;;;;;5047501;28;20039;-86
2022/02/02 00:29:21;;;;;;;25.85;3.97;;;;;;;;;;5046815;28;20061;-84
2022/02/02 00:31:53;;;;;;;25.83;3.53;;;;;;;;;;5045837;28;20115;-85
2022/02/02 00:34:23;;;;;;;24.47;3.73;;;;;;;;;;5028814;28;20029;-84
2022/02/02 00:36:55;;;;;;;24.40;3.53;;;;;;;;;;5042712;28;20031;-86
2022/02/02 00:39:21;;;;;;;26.60;3.53;;;;;;;;;;5033007;28;20061;-87
2022/02/02 00:41:46;;;;;;;22.63;4.30;;;;;;;;;;5031697;28;20052;-84
2022/02/02 00:44:14;;;;;;;26.58;4.32;;;;;;;;;;5029182;28;20025;-81
2022/02/02 00:46:40;;;;;;;21.20;3.40;;;;;;;;;;5028887;28;20032;-86
2022/02/02 00:49:06;;;;;;;26.52;4.05;;;;;;;;;;5028743;28;20095;-84
2022/02/02 00:51:40;;;;;;;27.55;3.85;;;;;;;;;;5031287;28;20040;-84
2022/02/02 00:54:06;;;;;;;20.92;3.28;;;;;;;;;;5049388;28;20460;-82
2022/02/02 00:56:31;;;;;;;24.38;3.75;;;;;;;;;;5024803;28;20033;-86
2022/02/02 00:58:57;;;;;;;23.90;4.00;;;;;;;;;;5027275;28;20072;-81
2022/02/02 01:01:22;;;;;;;26.35;4.60;;;;;;;;;;5042376;28;20103;-87
2022/02/02 01:03:48;;;;;;;26.02;3.83;;;;;;;;;;5032054;28;20040;-84
2022/02/02 01:06:17;;;;;;;23.60;4.25;;;;;;;;;;5041391;28;20528;-81
2022/02/02 01:09:06;;;;;;;28.75;4.18;;;;;;;;;;5026097;28;20033;-85
2022/02/02 01:11:49;;;;;;;30.83;3.92;;;;;;;;;;5043498;28;20090;-84
2022/02/02 01:19:35;;;;;;;25.48;3.95;;;;;;;;;;5047088;28;20039;-84
2022/02/02 01:29:55;;;;;;;20.10;3.50;;;;;;;;;;5043707;28;20393;-86
2022/02/02 01:32:21;;;;;;;23.88;3.78;;;;;;;;;;5039257;28;20040;-81
2022/02/02 01:34:46;;;;;;;27.83;4.68;;;;;;;;;;5025367;28;20033;-84
2022/02/02 01:37:12;;;;;;;26.83;4.10;;;;;;;;;;5024125;28;20032;-83
2022/02/02 01:39:38;;;;;;;21.50;4.15;;;;;;;;;;5030436;28;20119;-84
2022/02/02 01:42:08;;;;;;;28.90;3.97;;;;;;;;;;5021047;28;20489;-86
2022/02/02 01:44:46;;;;;;;30.27;4.45;;;;;;;;;;5030338;28;20040;-84
2022/02/02 01:47:12;;;;;;;25.20;4.18;;;;;;;;;;5044109;28;20028;-82
2022/02/02 01:55:00;;;;;;;26.83;4.43;;;;;;;;;;5040226;28;20044;-81
2022/02/02 02:00:11;;;;;;;24.10;3.53;;;;;;;;;;5044745;28;20040;-82
2022/02/02 02:02:37;;;;;;;30.65;4.03;;;;;;;;;;5027751;28;20033;-82
2022/02/02 02:05:04;;;;;;;27.95;3.63;;;;;;;;;;5028095;28;20115;-81
2022/02/02 02:07:29;;;;;;;34.75;4.25;;;;;;;;;;5042754;28;20045;-86
2022/02/02 02:09:57;;;;;;;29.23;4.70;;;;;;;;;;5047231;28;20444;-84
2022/02/02 02:12:23;;;;;;;26.45;4.38;;;;;;;;;;5048737;28;20021;-84
2022/02/02 02:14:59;;;;;;;27.00;4.25;;;;;;;;;;5031834;28;20536;-81
2022/02/02 02:17:26;;;;;;;26.52;4.13;;;;;;;;;;5029392;28;20519;-86
2022/02/02 02:19:52;;;;;;;23.45;3.78;;;;;;;;;;5028609;28;20020;-86
2022/02/02 02:22:29;;;;;;;26.33;3.85;;;;;;;;;;5026242;28;20017;-81
2022/02/02 02:24:55;;;;;;;30.42;3.90;;;;;;;;;;5027408;28;20079;-81
2022/02/02 02:27:23;;;;;;;22.88;3.78;;;;;;;;;;5044875;28;20481;-81
2022/02/02 02:30:13;;;;;;;30.67;4.60;;;;;;;;;;5028175;28;20075;-84
2022/02/02 02:32:59;;;;;;;26.98;4.35;;;;;;;;;;5031081;28;20473;-81
2022/02/02 02:57:14;;;;;;;24.55;3.65;;;;;;;;;;5046120;28;20075;-82
2022/02/02 02:59:48;;;;;;;22.42;3.92;;;;;;;;;;5044927;28;20489;-81
2022/02/02 03:33:01;;;;;;;29.13;4.03;;;;;;;;;;5031747;28;20037;-80
2022/02/02 03:49:20;;;;;;;25.45;4.25;;;;;;;;;;5045869;28;20186;-85
2022/02/02 03:49:34;;;;;;;30.75;4.75;;;;;;;;;;5045197;28;20131;-84
2022/02/02 03:59:43;;;;;;;30.38;4.68;;;;;;;;;;5043600;28;20055;-81
2022/02/02 04:02:34;;;;;;;24.05;4.00;;;;;;;;;;5026953;28;20102;-86
2022/02/02 04:07:52;;;;;;;27.48;4.20;;;;;;;;;;5047357;28;20106;-84
2022/02/02 04:10:18;;;;;;;26.92;4.30;;;;;;;;;;5029789;28;20155;-86
2022/02/02 04:13:06;;;;;;;24.63;4.72;;;;;;;;;;5044007;28;20029;-86
2022/02/02 04:16:53;;;;;;;30.30;4.50;;;;;;;;;;5025039;28;20477;-84
2022/02/02 04:37:47;;;;;;;27.52;3.60;;;;;;;;;;5044190;28;20063;-81
2022/02/02 05:07:11;;;;;;;29.00;4.22;;;;;;;;;;5044128;28;20036;-87
2022/02/02 05:09:54;;;;;;;28.05;3.22;;;;;;;;;;5027046;28;20150;-84
2022/02/02 05:26:32;;;;;;;21.20;3.35;;;;;;;;;;5046851;28;20388;-86
2022/02/02 05:51:24;;;;;;;29.25;4.97;;;;;;;;;;5041422;28;20033;-86
2022/02/02 05:53:51;;;;;;;23.20;3.35;;;;;;;;;;5027621;28;20431;-81
2022/02/02 05:56:17;;;;;;;27.63;4.13;;;;;;;;;;5031139;28;20036;-81
2022/02/02 05:58:47;;;;;;;27.48;4.63;;;;;;;;;;5026871;28;20026;-87
2022/02/02 06:01:14;;;;;;;25.95;3.97;;;;;;;;;;5045858;28;20478;-84
2022/02/02 06:03:50;;;;;;;28.55;4.28;;;;;;;;;;5026818;28;20498;-86
2022/02/02 06:06:16;;;;;;;20.38;3.20;;;;;;;;;;5028828;28;20030;-81
2022/02/02 06:08:44;;;;;;;25.98;3.92;;;;;;;;;;5041379;28;20103;-84
2022/02/02 06:11:15;;;;;;;23.15;3.45;;;;;;;;;;5046266;28;20025;-84
2022/02/02 06:13:45;;;;;;;22.70;3.60;;;;;;;;;;5029234;28;20048;-81
2022/02/02 06:16:11;;;;;;;25.92;3.67;;;;;;;;;;5024831;28;21829;-82
2022/02/02 06:18:37;;;;;;;25.38;3.42;;;;;;;;;;5025921;28;20040;-87
2022/02/02 06:21:08;;;;;;;26.95;3.92;;;;;;;;;;5030443;28;20104;-81
2022/02/02 06:23:42;;;;;;;26.85;4.55;;;;;;;;;;5029869;28;20401;-86
2022/02/02 06:26:16;;;;;;;22.60;3.90;;;;;;;;;;5033139;28;20021;-80
2022/02/02 06:28:44;;;;;;;22.17;3.53;;;;;;;;;;5027461;28;20095;-81
2022/02/02 06:31:13;;;;;;;26.60;3.60;;;;;;;;;;5024166;28;20108;-87
2022/02/02 06:33:40;;;;;;;19.35;3.53;;;;;;;;;;5045818;28;20056;-84
2022/02/02 06:36:11;;;;;;;27.60;3.58;;;;;;;;;;5026200;28;20112;-80
2022/02/02 06:38:42;;;;;;;23.23;3.65;;;;;;;;;;5019594;28;20482;-83
2022/02/02 06:41:08;;;;;;;21.60;3.10;;;;;;;;;;5020739;28;20128;-81
2022/02/02 06:43:33;;;;;;;34.03;3.97;;;;;;;;;;5019786;28;20025;-81
2022/02/02 06:46:01;;;;;;;18.92;3.45;;;;;;;;;;5021377;28;20028;-86
2022/02/02 06:48:32;;;;;;;20.98;3.88;;;;;;;;;;5040312;28;20032;-84
2022/02/02 06:51:18;;;;;;;20.45;3.08;;;;;;;;;;5032910;28;20033;-84
2022/02/02 06:54:20;;;;;;;23.65;3.83;;;;;;;;;;5013867;28;20405;-83
2022/02/02 06:57:01;;;;;;;25.73;3.20;;;;;;;;;;5034421;28;20031;-86
2022/02/02 07:02:22;;;;;;;24.67;4.43;;;;;;;;;;5035762;28;20060;-83
2022/02/02 07:23:55;;;;;;;21.67;3.67;;;;;;;;;;5037053;28;20033;-83
2022/02/02 07:33:49;;;;;;;29.42;4.75;;;;;;;;;;5046426;28;20389;-83
2022/02/02 07:36:28;;;;;;;15.98;3.33;;;;;;;;;;5026833;28;20393;-83
2022/02/02 07:39:06;;;;;;;25.63;4.35;;;;;;;;;;5040988;28;20109;-85
2022/02/02 07:41:38;;;;;;;19.40;3.45;;;;;;;;;;5028748;28;20044;-82
2022/02/02 07:44:17;;;;;;;19.17;3.40;;;;;;;;;;5039759;28;20487;-83
2022/02/02 07:46:47;;;;;;;22.50;3.42;;;;;;;;;;5020497;28;20048;-83
2022/02/02 07:49:15;;;;;;;20.30;3.13;;;;;;;;;;5023450;28;20122;-88
2022/02/02 07:51:42;;;;;;;19.27;4.00;;;;;;;;;;5028770;28;20041;-84
2022/02/02 07:54:16;;;;;;;23.25;3.78;;;;;;;;;;5024475;28;20139;-83
2022/02/02 07:56:56;;;;;;;23.90;3.95;;;;;;;;;;5034744;28;20182;-83
2022/02/02 08:01:53;;;;;;;25.02;4.40;;;;;;;;;;5035151;28;20056;-82
2022/02/02 08:04:21;;;;;;;28.55;3.78;;;;;;;;;;5020177;28;20057;-83
2022/02/02 08:06:53;;;;;;;23.65;3.88;;;;;;;;;;5019093;28;20128;-87
2022/02/02 08:09:30;;;;;;;22.73;3.83;;;;;;;;;;5018876;28;20022;-82
2022/02/02 08:11:57;;;;;;;29.83;4.20;;;;;;;;;;5034615;28;20021;-81
2022/02/02 08:14:24;;;;;;;28.00;4.05;;;;;;;;;;5016189;28;20033;-82
2022/02/02 08:16:49;;;;;;;20.48;3.25;;;;;;;;;;5025814;28;20052;-82
2022/02/02 08:19:16;;;;;;;20.98;3.67;;;;;;;;;;5020370;28;20039;-84
2022/02/02 08:21:43;;;;;;;27.15;4.18;;;;;;;;;;5039041;28;20951;-87
2022/02/02 08:24:09;;;;;;;24.70;4.28;;;;;;;;;;5017754;28;20033;-85
2022/02/02 08:26:35;;;;;;;25.50;3.83;;;;;;;;;;5022880;28;20040;-82
2022/02/02 08:29:00;;;;;;;25.02;4.13;;;;;;;;;;5033612;28;20040;-82
2022/02/02 08:31:27;;;;;;;25.25;3.83;;;;;;;;;;5019590;28;20029;-87
2022/02/02 08:33:57;;;;;;;27.08;4.25;;;;;;;;;;5023366;28;20025;-82
2022/02/02 08:36:22;;;;;;;20.77;4.20;;;;;;;;;;5032930;28;20025;-82
2022/02/02 08:41:18;;;;;;;28.63;4.47;;;;;;;;;;5040090;28;20089;-84
2022/02/02 08:43:54;;;;;;;32.72;4.35;;;;;;;;;;5024624;28;20024;-82
2022/02/02 08:47:22;;;;;;;21.88;3.78;;;;;;;;;;5020904;28;20029;-86
2022/02/02 08:49:16;;;;;;;21.42;3.70;;;;;;;;;;5018912;28;20400;-83
2022/02/02 08:51:45;;;;;;;21.23;3.88;;;;;;;;;;5017485;28;20120;-82
2022/02/02 08:54:33;;;;;;;32.10;5.13;;;;;;;;;;5018807;28;20418;-83
2022/02/02 08:57:17;;;;;;;27.48;3.83;;;;;;;;;;5031289;28;20503;-87
2022/02/02 09:00:10;;;;;;;31.85;4.25;;;;;;;;;;5040340;28;20035;-87
2022/02/02 09:02:32;;;;;;;18.88;3.92;;;;;;;;;;5039280;28;20033;-83
2022/02/02 09:07:41;;;;;;;26.70;3.67;;;;;;;;;;5038739;28;20086;-85
2022/02/02 09:10:14;;;;;;;21.75;3.97;;;;;;;;;;5035488;28;20033;-82
2022/02/02 09:31:35;;;;;;;27.75;4.22;;;;;;;;;;5036358;28;20067;-86
2022/02/02 09:34:04;;;;;;;23.48;4.40;;;;;;;;;;5032772;28;20111;-83
2022/02/02 09:36:32;;;;;;;20.17;4.25;;;;;;;;;;5032654;28;20041;-83
2022/02/02 09:39:00;;;;;;;21.10;4.30;;;;;;;;;;5035323;28;20029;-82
2022/02/02 09:44:02;;;;;;;22.77;3.92;;;;;;;;;;5031041;28;20033;-81
2022/02/02 09:50:15;;;;;;;24.73;3.42;;;;;;;;;;5027982;28;20037;-81
2022/02/02 09:52:16;;;;;;;20.17;3.50;;;;;;;;;;5018358;28;20099;-84
2022/02/02 10:05:06;;;;;;;19.83;4.07;;;;;;;;;;5040913;28;20032;-82
2022/02/02 10:13:48;;;;;;;19.73;3.85;;;;;;;;;;5038377;28;19925;-85
2022/02/02 10:16:25;;;;;;;19.27;3.50;;;;;;;;;;5019773;28;20049;-87
2022/02/02 10:18:51;;;;;;;26.88;5.10;;;;;;;;;;5020467;28;20118;-83
2022/02/02 10:21:30;;;;;;;20.25;4.13;;;;;;;;;;5018615;28;20127;-84
2022/02/02 10:23:56;;;;;;;19.70;3.88;;;;;;;;;;5021464;28;20550;-84
2022/02/02 10:26:22;;;;;;;20.75;3.58;;;;;;;;;;5018901;28;20037;-82
2022/02/02 10:28:49;;;;;;;21.73;4.00;;;;;;;;;;5029555;28;20036;-82
2022/02/02 10:31:16;;;;;;;20.85;3.85;;;;;;;;;;5033449;28;20116;-80
2022/02/02 10:33:41;;;;;;;16.75;3.30;;;;;;;;;;5014470;28;20547;-85
2022/02/02 10:36:15;;;;;;;25.30;4.15;;;;;;;;;;5024917;28;20098;-81
2022/02/02 10:38:49;;;;;;;22.15;4.18;;;;;;;;;;5012293;28;20497;-79
2022/02/02 10:41:29;;;;;;;20.45;4.53;;;;;;;;;;5008356;28;20115;-82
2022/02/02 10:44:01;;;;;;;26.70;3.90;;;;;;;;;;5012992;28;20032;-82
2022/02/02 10:49:04;;;;;;;19.35;3.60;;;;;;;;;;5025393;28;20033;-81
2022/02/02 10:57:04;;;;;;;21.35;3.33;;;;;;;;;;5027246;28;20401;-81
2022/02/02 11:07:15;;;;;;;22.75;4.20;;;;;;;;;;5029532;28;20676;-80
2022/02/02 11:09:44;;;;;;;18.05;3.15;;;;;;;;;;5014671;28;20647;-81
2022/02/02 11:12:09;;;;;;;20.83;3.78;;;;;;;;;;5025028;28;20053;-81
2022/02/02 11:14:51;;;;;;;24.55;4.30;;;;;;;;;;5014980;28;20071;-82
2022/02/02 11:17:31;;;;;;;22.83;4.10;;;;;;;;;;5010730;28;20139;-84
2022/02/02 11:20:04;;;;;;;20.45;3.95;;;;;;;;;;5017428;28;20128;-83
2022/02/02 11:22:46;;;;;;;20.15;3.75;;;;;;;;;;5027486;28;20037;-80
2022/02/02 11:25:11;;;;;;;17.17;4.15;;;;;;;;;;5025940;28;20040;-81
2022/02/02 11:27:43;;;;;;;21.90;4.05;;;;;;;;;;5015090;28;20044;-81
2022/02/02 11:30:24;;;;;;;25.42;3.90;;;;;;;;;;5032405;28;20040;-81
2022/02/02 11:33:13;;;;;;;15.85;3.45;;;;;;;;;;5011735;28;20071;-81
2022/02/02 11:36:02;;;;;;;19.75;3.50;;;;;;;;;;5027779;28;20064;-82
2022/02/02 11:38:28;;;;;;;21.88;3.88;;;;;;;;;;5030220;28;20033;-80
2022/02/02 11:44:41;;;;;;;;;;;;;;;;;;5029382;28;20037;-81
2022/02/02 11:49:22;;;;;;;22.23;3.90;;;;;;;;;;5030219;28;20029;-85
2022/02/02 11:51:57;;;;;;;19.25;3.35;;;;;;;;;;5010521;28;20088;-82
2022/02/02 11:54:32;;;;;;;48.97;26.95;;;;;;;;;;5012720;28;20039;-82
2022/02/02 11:56:57;;;;;;;25.63;6.82;;;;;;;;;;5010535;28;20040;-83
2022/02/02 12:00:01;;;;;;;23.70;3.78;;;;;;;;;;5028814;28;20025;-84
2022/02/02 12:05:29;;;;;;;14.10;2.78;;;;;;;;;;5029224;28;20119;-82
2022/02/02 12:35:55;;;;;;;17.08;3.42;;;;;;;;;;5032931;28;20118;-83
2022/02/02 12:57:19;;;;;;;16.30;2.95;;;;;;;;;;5010747;28;20041;-83
2022/02/02 13:02:17;;;;;;;15.35;2.85;;;;;;;;;;5028153;28;20033;-83
2022/02/02 13:04:45;;;;;;;13.68;3.35;;;;;;;;;;5029505;28;20035;-85
2022/02/02 13:07:17;;;;;;;19.20;3.17;;;;;;;;;;5015173;28;20036;-81
2022/02/02 13:09:49;;;;;;;25.00;3.47;;;;;;;;;;5025044;28;20155;-82
2022/02/02 13:12:22;;;;;;;20.92;3.40;;;;;;;;;;5028575;28;20032;-83
2022/02/02 13:15:21;;;;;;;21.10;3.38;;;;;;;;;;5016811;28;20063;-82
2022/02/02 13:18:02;;;;;;;15.48;2.80;;;;;;;;;;5028442;28;20045;-83
2022/02/02 13:20:47;;;;;;;14.73;3.40;;;;;;;;;;5029544;28;20029;-83
2022/02/02 13:23:24;;;;;;;18.42;2.75;;;;;;;;;;5024020;28;20021;-83
2022/02/02 13:26:02;;;;;;;15.65;3.00;;;;;;;;;;5015754;28;20456;-81
2022/02/02 13:29:04;;;;;;;16.83;2.70;;;;;;;;;;5006932;28;20036;-83
2022/02/02 13:34:22;;;;;;;17.25;2.90;;;;;;;;;;5026157;28;20043;-81
2022/02/02 13:45:38;;;;;;;19.05;2.97;;;;;;;;;;5024045;28;20128;-83
2022/02/02 13:48:44;;;;;;;21.20;3.95;;;;;;;;;;5034276;28;20029;-81
2022/02/02 14:01:49;;;;;;;16.70;4.07;;;;;;;;;;5040742;28;20644;-83
2022/02/02 14:32:18;;;;;;;16.77;3.97;;;;;;;;;;5035527;28;20037;-83
2022/02/02 14:34:44;;;;;;;16.05;3.08;;;;;;;;;;5028536;28;20561;-86
2022/02/02 14:37:17;;;;;;;25.67;3.38;;;;;;;;;;5023555;28;20666;-82
2022/02/02 14:39:55;;;;;;;16.27;3.08;;;;;;;;;;5026242;28;20052;-85
2022/02/02 14:42:24;;;;;;;14.52;2.95;;;;;;;;;;5025162;28;20566;-84
2022/02/02 14:44:51;;;;;;;14.07;2.75;;;;;;;;;;5023770;28;20045;-84
2022/02/02 14:47:23;;;;;;;21.50;3.70;;;;;;;;;;5043376;28;20035;-85
2022/02/02 14:50:09;;;;;;;21.90;3.95;;;;;;;;;;5042336;28;20062;-81
2022/02/02 15:29:59;;;;;;;13.15;3.17;;;;;;;;;;5053108;28;20435;-79
2022/02/02 15:32:27;;;;;;;13.10;2.92;;;;;;;;;;5032980;28;20116;-86
2022/02/02 15:34:56;;;;;;;12.52;2.95;;;;;;;;;;5035661;28;20028;-88
2022/02/02 15:37:27;;;;;;;15.52;3.03;;;;;;;;;;5053290;28;20033;-82
2022/02/02 15:40:10;;;;;;;7.70;2.70;;;;;;;;;;5048678;28;20016;-85
2022/02/02 15:43:17;;;;;;;10.15;2.55;;;;;;;;;;5034117;28;20094;-82
2022/02/02 16:06:42;;;;;;;18.58;4.00;;;;;;;;;;5028708;28;20459;-82
2022/02/02 16:09:36;;;;;;;13.45;3.53;;;;;;;;;;5031710;28;20084;-88
2022/02/02 16:12:13;;;;;;;13.65;3.70;;;;;;;;;;5031217;28;20383;-88
2022/02/02 16:15:02;;;;;;;13.00;3.63;;;;;;;;;;5032233;28;20120;-81
2022/02/02 16:32:23;;;;;;;11.10;4.55;;;;;;;;;;5032579;28;20091;-82
2022/02/02 16:37:43;;;;;;;15.20;5.03;;;;;;;;;;5031202;28;20029;-87
2022/02/02 16:40:39;;;;;;;12.02;4.72;;;;;;;;;;5014923;28;20116;-81
2022/02/02 16:46:05;;;;;;;14.95;5.38;;;;;;;;;;4986476;28;20556;-87
2022/02/02 16:48:34;;;;;;;14.20;5.13;;;;;;;;;;5017217;28;20498;-83
2022/02/02 16:51:09;;;;;;;14.35;4.72;;;;;;;;;;5011680;28;20025;-81
2022/02/02 16:53:45;;;;;;;14.88;5.72;;;;;;;;;;5029392;28;20033;-82
2022/02/02 16:56:22;;;;;;;17.65;4.72;;;;;;;;;;5014500;28;20042;-81
2022/02/02 17:30:11;;;;;;;13.85;5.72;;;;;;;;;;5044738;28;20355;-88
2022/02/02 17:37:56;;;;;;;9.57;5.13;;;;;;;;;;5041643;28;20036;-81
2022/02/02 17:43:40;;;;;;;12.30;5.50;;;;;;;;;;5042906;28;20033;-82
2022/02/02 18:20:52;;;;;;;9.52;4.70;;;;;;;;;;4967461;28;20045;-87
2022/02/02 18:23:34;;;;;;;8.25;4.57;;;;;;;;;;5009011;28;20025;-81
2022/02/02 18:28:57;;;;;;;10.57;4.85;;;;;;;;;;5043099;28;20112;-82
2022/02/02 18:34:35;;;;;;;9.75;4.70;;;;;;;;;;5040637;28;20595;-81
2022/02/02 18:45:16;;;;;;;9.18;4.55;;;;;;;;;;5042111;28;20092;-87
2022/02/02 19:04:48;;;;;;;10.75;4.95;;;;;;;;;;5045404;28;20102;-81
2022/02/02 19:07:52;;;;;;;9.25;4.55;;;;;;;;;;5025221;28;20021;-81
2022/02/02 20:08:57;;;;;;;15.43;8.15;;;;;;;;;;5044867;28;20028;-81
2022/02/02 20:11:38;;;;;;;;;;;;;;;;;;;;;
2022/02/02 20:14:13;;;;;;;16.38;8.45;;;;;;;;;;5051066;28;20039;-87
2022/02/02 20:16:39;;;;;;;17.33;9.15;;;;;;;;;;5026523;28;20075;-81
2022/02/02 20:19:10;;;;;;;18.13;9.18;;;;;;;;;;5030751;28;20045;-81
2022/02/02 20:21:47;;;;;;;20.23;10.27;;;;;;;;;;5024259;28;20484;-80
2022/02/02 20:24:13;;;;;;;20.55;10.70;;;;;;;;;;5010310;28;20052;-80
2022/02/02 20:26:40;;;;;;;19.45;10.55;;;;;;;;;;5012194;28;20076;-85
2022/02/02 20:29:14;;;;;;;19.38;10.50;;;;;;;;;;5011977;28;20624;-81
2022/02/02 20:31:43;;;;;;;23.73;11.65;;;;;;;;;;5008377;28;20429;-80
2022/02/02 20:34:11;;;;;;;23.02;12.35;;;;;;;;;;5011424;28;20075;-87
2022/02/02 20:36:42;;;;;;;23.52;11.95;;;;;;;;;;5011912;28;20029;-80
2022/02/02 20:39:21;;;;;;;20.77;11.30;;;;;;;;;;5026007;28;20038;-86
2022/02/02 20:41:47;;;;;;;22.05;12.07;;;;;;;;;;5012014;28;20032;-81
2022/02/02 20:44:22;;;;;;;22.10;11.73;;;;;;;;;;5012919;28;20038;-81
2022/02/02 20:47:17;;;;;;;23.38;11.77;;;;;;;;;;5027108;28;20036;-84
2022/02/02 21:03:53;;;;;;;25.55;12.40;;;;;;;;;;5023640;28;20479;-82
2022/02/02 21:14:10;;;;;;;24.77;13.05;;;;;;;;;;5021294;28;20034;-82
2022/02/02 21:16:39;;;;;;;23.13;13.50;;;;;;;;;;5005064;28;20401;-81
2022/02/02 21:19:08;;;;;;;25.85;12.82;;;;;;;;;;5022810;28;20110;-83
2022/02/02 21:21:51;;;;;;;23.98;13.00;;;;;;;;;;5047596;28;20078;-82
2022/02/02 21:29:24;;;;;;;23.85;13.43;;;;;;;;;;5042236;28;20173;-82
2022/02/02 21:31:50;;;;;;;23.60;13.88;;;;;;;;;;5027318;28;20577;-82
2022/02/02 21:34:19;;;;;;;24.00;13.48;;;;;;;;;;5029693;28;20071;-80
2022/02/02 21:36:45;;;;;;;25.13;14.73;;;;;;;;;;5038174;28;20031;-82
2022/02/02 21:39:20;;;;;;;27.20;14.48;;;;;;;;;;5043914;28;20025;-82
2022/02/02 21:41:47;;;;;;;27.92;14.23;;;;;;;;;;5041367;28;20037;-88
2022/02/02 21:44:13;;;;;;;27.88;15.63;;;;;;;;;;5046179;28;20123;-81
2022/02/02 21:46:41;;;;;;;27.27;15.23;;;;;;;;;;5027642;28;20034;-83
2022/02/02 21:49:09;;;;;;;28.35;15.80;;;;;;;;;;5040221;28;20052;-80
2022/02/02 21:51:41;;;;;;;27.85;16.00;;;;;;;;;;5029104;28;20089;-80
2022/02/02 21:54:06;;;;;;;25.40;15.07;;;;;;;;;;5030368;28;20552;-82
2022/02/02 21:56:32;;;;;;;24.25;14.20;;;;;;;;;;5040910;28;20086;-83
2022/02/02 21:58:57;;;;;;;26.58;13.88;;;;;;;;;;5041151;28;20033;-80
2022/02/02 22:01:24;;;;;;;24.50;14.52;;;;;;;;;;5046529;28;20025;-82
2022/02/02 22:03:49;;;;;;;24.17;14.25;;;;;;;;;;5026905;28;20032;-82
2022/02/02 22:06:15;;;;;;;21.58;13.73;;;;;;;;;;5027167;28;20025;-88
2022/02/02 22:08:41;;;;;;;23.88;14.70;;;;;;;;;;5026806;28;20040;-80
2022/02/02 22:11:07;;;;;;;24.05;13.55;;;;;;;;;;5027963;28;20532;-86
2022/02/02 22:13:45;;;;;;;22.48;13.85;;;;;;;;;;5023246;28;20072;-82
2022/02/02 22:16:16;;;;;;;23.92;15.60;;;;;;;;;;5041738;28;20067;-81
2022/02/02 22:18:42;;;;;;;24.30;15.05;;;;;;;;;;5044390;28;20486;-81
2022/02/02 22:21:08;;;;;;;26.15;14.70;;;;;;;;;;5046364;28;20074;-81
2022/02/02 22:23:35;;;;;;;23.15;14.98;;;;;;;;;;5029102;28;20037;-86
2022/02/02 22:26:01;;;;;;;24.08;14.65;;;;;;;;;;5028383;28;20032;-80
2022/02/02 22:28:26;;;;;;;23.52;14.65;;;;;;;;;;5027204;28;20572;-88
2022/02/02 22:30:52;;;;;;;20.40;14.20;;;;;;;;;;5027853;28;20044;-81
2022/02/02 22:33:17;;;;;;;23.30;14.95;;;;;;;;;;5026257;28;20388;-80
2022/02/02 22:35:43;;;;;;;21.55;14.10;;;;;;;;;;5030382;28;20029;-80
2022/02/02 22:38:09;;;;;;;23.55;16.42;;;;;;;;;;5032604;28;20442;-82
2022/02/02 22:40:35;;;;;;;20.52;14.82;;;;;;;;;;5045143;28;20027;-81
2022/02/02 22:43:00;;;;;;;21.00;14.55;;;;;;;;;;5022934;28;20112;-81
2022/02/02 22:45:27;;;;;;;19.92;14.30;;;;;;;;;;5044737;28;20490;-86
2022/02/02 22:47:53;;;;;;;23.67;15.98;;;;;;;;;;5026370;28;20029;-80
2022/02/02 22:50:20;;;;;;;20.98;14.77;;;;;;;;;;5024517;28;20140;-80
2022/02/02 22:52:49;;;;;;;19.80;14.10;;;;;;;;;;5044109;28;20033;-81
2022/02/02 22:55:17;;;;;;;21.30;14.50;;;;;;;;;;5025595;28;20029;-80
2022/02/02 22:57:42;;;;;;;21.25;14.52;;;;;;;;;;5031539;28;20469;-80
2022/02/02 23:00:14;;;;;;;21.52;14.38;;;;;;;;;;5041385;28;20026;-88
2022/02/02 23:05:13;;;;;;;24.98;14.57;;;;;;;;;;5051440;28;20028;-86
2022/02/02 23:07:39;;;;;;;21.33;14.55;;;;;;;;;;5033806;28;20385;-80
2022/02/02 23:10:05;;;;;;;24.85;15.85;;;;;;;;;;5034016;28;20394;-81
2022/02/02 23:12:30;;;;;;;22.92;15.80;;;;;;;;;;5034684;28;20512;-82
2022/02/02 23:15:02;;;;;;;25.17;16.10;;;;;;;;;;5035144;28;20243;-88
2022/02/02 23:17:29;;;;;;;25.05;16.63;;;;;;;;;;5033415;28;20031;-80
2022/02/02 23:19:54;;;;;;;20.45;15.18;;;;;;;;;;5047919;28;20017;-80
2022/02/02 23:22:24;;;;;;;25.38;16.40;;;;;;;;;;5036030;28;20043;-81
2022/02/02 23:24:52;;;;;;;24.33;15.98;;;;;;;;;;5033771;28;20397;-83
2022/02/02 23:27:18;;;;;;;21.63;15.20;;;;;;;;;;5053503;28;20021;-82
2022/02/02 23:29:51;;;;;;;26.80;18.10;;;;;;;;;;5033791;28;20037;-80
2022/02/02 23:32:19;;;;;;;22.50;16.05;;;;;;;;;;5031079;28;20060;-80
2022/02/02 23:34:46;;;;;;;25.45;17.08;;;;;;;;;;5034912;28;20112;-88
2022/02/02 23:37:12;;;;;;;22.75;15.82;;;;;;;;;;5032647;28;20033;-88
2022/02/02 23:39:40;;;;;;;25.20;16.42;;;;;;;;;;5033131;28;20040;-80
2022/02/02 23:42:20;;;;;;;24.38;17.33;;;;;;;;;;5038481;28;20028;-80
2022/02/02 23:44:51;;;;;;;27.27;17.98;;;;;;;;;;5032271;28;20036;-81
2022/02/02 23:47:19;;;;;;;25.65;16.38;;;;;;;;;;5028428;28;20037;-80
2022/02/02 23:49:52;;;;;;;31.45;19.13;;;;;;;;;;5036027;28;20394;-80
2022/02/02 23:52:34;;;;;;;24.77;17.02;;;;;;;;;;5033906;28;20104;-80
2022/02/02 23:55:02;;;;;;;27.30;17.02;;;;;;;;;;5050787;28;20366;-88
2022/02/02 23:57:45;;;;;;;27.00;17.58;;;;;;;;;;5048512;28;20412;-80
